Park Rapids, Minnesota
Current Conditions -  °F | °C
As of 12:53 PM on Friday 21 Nov 2014 (Local Time) from KPKD Reporting Station
Clear Clear  
Wind Chill: 16°   Ceiling: Unl
Heat Index: 28°   Visibility: 10mi
Dew Point: 19°   Wind: 17mph
Humidity: 69%   Direction: 200°SSW
Pressure: 29.83"   Gusts: 29mph
Location:  46.92°N, 95.06°W
Report Text: KPKD 211853Z AUTO 20015G25KT 10SM CLR M02/M07 A2983 RMK AO2 PK WND 19028/1800 SLP130 T10221072
Loading
Personal Weather Stations






























Interactive Weather Map New forecast layout! Learn more

10-Day Weather Forecast

Advertisements
Track Severe Weather on mobile